createdAt,value
2022-11-25T00:01:08.924Z,1060.00
2022-11-25T00:06:08.230Z,942.00
2022-11-25T00:11:07.511Z,950.00
2022-11-25T00:16:06.807Z,912.00
2022-11-25T00:21:08.100Z,896.00
2022-11-25T00:26:05.373Z,887.00
2022-11-25T00:31:04.648Z,878.00
2022-11-25T00:36:04.938Z,868.00
2022-11-25T00:41:03.213Z,854.00
2022-11-25T00:46:03.587Z,828.00
2022-11-25T00:51:01.715Z,823.00
2022-11-25T00:56:01.060Z,824.00
2022-11-25T01:01:01.254Z,808.00
2022-11-25T01:05:59.335Z,805.00
2022-11-25T01:10:58.640Z,795.00
2022-11-25T01:15:57.997Z,789.00
2022-11-25T01:20:59.138Z,784.00
2022-11-25T01:25:56.457Z,774.00
2022-11-25T01:30:55.767Z,766.00
2022-11-25T01:35:57.951Z,764.00
2022-11-25T01:40:54.233Z,754.00
2022-11-25T01:45:53.564Z,746.00
2022-11-25T01:50:52.866Z,743.00
2022-11-25T01:55:52.182Z,729.00
2022-11-25T02:00:53.608Z,712.00
2022-11-25T02:05:51.683Z,716.00
2022-11-25T02:10:50.981Z,703.00
2022-11-25T02:15:50.259Z,700.00
2022-11-25T02:20:49.549Z,686.00
2022-11-25T02:25:48.826Z,677.00
2022-11-25T02:30:47.117Z,683.00
2022-11-25T02:35:46.413Z,685.00
2022-11-25T02:40:45.749Z,669.00
2022-11-25T02:45:47.045Z,668.00
2022-11-25T02:50:44.170Z,676.00
2022-11-25T02:55:43.490Z,675.00
2022-11-25T03:00:41.833Z,671.00
2022-11-25T03:05:43.996Z,663.00
2022-11-25T03:10:42.281Z,663.00
2022-11-25T03:15:41.597Z,656.00
2022-11-25T03:20:39.979Z,647.00
2022-11-25T03:25:39.093Z,650.00
2022-11-25T03:30:38.436Z,648.00
2022-11-25T03:35:38.613Z,633.00
2022-11-25T03:40:35.704Z,636.00
2022-11-25T03:45:36.063Z,638.00
2022-11-25T03:50:36.177Z,635.00
2022-11-25T03:55:34.464Z,634.00
2022-11-25T04:00:34.755Z,628.00
2022-11-25T04:05:33.047Z,624.00
2022-11-25T04:10:33.382Z,620.00
2022-11-25T04:15:32.673Z,618.00
2022-11-25T04:20:31.973Z,616.00
2022-11-25T04:25:31.265Z,611.00
2022-11-25T04:30:29.526Z,606.00
2022-11-25T04:35:28.799Z,608.00
2022-11-25T04:40:29.080Z,604.00
2022-11-25T04:45:40.671Z,604.00
2022-11-25T04:50:26.507Z,597.00
2022-11-25T04:55:27.846Z,600.00
2022-11-25T05:00:24.961Z,597.00
2022-11-25T05:05:24.175Z,611.00
2022-11-25T05:10:23.292Z,609.00
2022-11-25T05:15:22.623Z,614.00
2022-11-25T05:20:21.982Z,605.00
2022-11-25T05:25:21.264Z,612.00
2022-11-25T05:30:21.634Z,612.00
2022-11-25T05:35:20.796Z,611.00
2022-11-25T05:40:19.911Z,604.00
2022-11-25T05:45:19.058Z,597.00
2022-11-25T05:50:16.353Z,601.00
2022-11-25T05:55:17.684Z,599.00
2022-11-25T06:00:15.982Z,605.00
2022-11-25T06:05:16.284Z,603.00
2022-11-25T06:10:15.601Z,601.00
2022-11-25T06:15:14.863Z,597.00
2022-11-25T06:20:13.117Z,597.00
2022-11-25T06:25:13.415Z,615.00
2022-11-25T06:30:11.683Z,609.00
2022-11-25T06:35:12.133Z,611.00
2022-11-25T06:40:11.241Z,610.00
2022-11-25T06:45:10.554Z,630.00
2022-11-25T06:50:08.870Z,619.00
2022-11-25T06:55:07.204Z,618.00
2022-11-25T07:00:07.342Z,622.00
2022-11-25T07:05:06.647Z,628.00
2022-11-25T07:10:05.949Z,623.00
2022-11-25T07:15:05.217Z,616.00
2022-11-25T07:20:04.525Z,640.00
2022-11-25T07:25:03.814Z,657.00
2022-11-25T07:30:54.359Z,678.00
2022-11-25T07:35:02.252Z,703.00
2022-11-25T07:40:02.584Z,710.00
2022-11-25T07:45:00.861Z,708.00
2022-11-25T07:50:02.148Z,704.00
2022-11-25T07:55:00.428Z,731.00
2022-11-25T08:00:00.679Z,723.00
2022-11-25T08:04:57.990Z,709.00
2022-11-25T08:09:59.299Z,718.00
2022-11-25T08:14:57.594Z,697.00
2022-11-25T08:19:55.890Z,684.00
2022-11-25T08:24:56.193Z,697.00
2022-11-25T08:29:54.505Z,675.00
2022-11-25T08:34:53.818Z,679.00
2022-11-25T08:39:54.237Z,657.00
2022-11-25T08:44:53.531Z,654.00
2022-11-25T08:49:53.621Z,670.00
2022-11-25T08:54:51.016Z,661.00
2022-11-25T08:59:50.087Z,666.00
2022-11-25T09:04:50.373Z,659.00
2022-11-25T09:09:49.671Z,644.00
2022-11-25T09:14:47.957Z,646.00
2022-11-25T09:19:48.267Z,675.00
2022-11-25T09:24:46.551Z,646.00
2022-11-25T09:29:46.864Z,679.00
2022-11-25T09:34:45.183Z,677.00
2022-11-25T09:39:45.473Z,672.00
2022-11-25T09:44:43.849Z,696.00
2022-11-25T09:49:43.931Z,701.00
2022-11-25T09:54:43.218Z,668.00
2022-11-25T09:59:41.533Z,663.00
2022-11-25T10:04:41.857Z,661.00
2022-11-25T10:09:40.098Z,663.00
2022-11-25T10:14:38.342Z,656.00
2022-11-25T10:19:38.722Z,659.00
2022-11-25T10:24:41.422Z,645.00
2022-11-25T10:29:36.876Z,650.00
2022-11-25T10:34:37.384Z,639.00
2022-11-25T10:39:35.404Z,646.00
2022-11-25T10:44:36.015Z,637.00
2022-11-25T10:49:35.043Z,630.00
2022-11-25T10:54:33.352Z,630.00
2022-11-25T10:59:32.650Z,633.00
2022-11-25T11:04:32.987Z,617.00
2022-11-25T11:09:31.132Z,624.00
2022-11-25T11:14:31.464Z,617.00
2022-11-25T11:19:29.770Z,622.00
2022-11-25T11:24:31.121Z,620.00
2022-11-25T11:29:29.422Z,618.00
2022-11-25T11:34:30.743Z,617.00
2022-11-25T11:39:28.056Z,613.00
2022-11-25T11:44:26.381Z,608.00
2022-11-25T11:49:30.580Z,607.00
2022-11-25T11:54:25.999Z,605.00
2022-11-25T11:59:27.327Z,603.00
2022-11-25T12:04:24.639Z,602.00
2022-11-25T12:09:22.954Z,605.00
2022-11-25T12:14:24.303Z,600.00
2022-11-25T12:19:21.599Z,600.00
2022-11-25T12:24:20.921Z,604.00
2022-11-25T12:29:21.231Z,602.00
2022-11-25T12:34:19.561Z,599.00
2022-11-25T12:39:19.871Z,594.00
2022-11-25T12:44:19.180Z,604.00
2022-11-25T12:49:17.801Z,596.00
2022-11-25T12:54:16.724Z,597.00
2022-11-25T12:59:15.843Z,598.00
2022-11-25T13:04:16.160Z,596.00
2022-11-25T13:09:14.451Z,590.00
2022-11-25T13:14:14.074Z,591.00
2022-11-25T13:19:13.069Z,588.00
2022-11-25T13:24:13.401Z,591.00
2022-11-25T13:29:13.724Z,590.00
2022-11-25T13:34:11.018Z,596.00
2022-11-25T13:39:10.331Z,599.00
2022-11-25T13:44:09.640Z,598.00
2022-11-25T13:49:08.974Z,590.00
2022-11-25T13:54:08.298Z,587.00
2022-11-25T13:59:07.597Z,588.00
2022-11-25T14:04:06.888Z,590.00
2022-11-25T14:09:09.175Z,592.00
2022-11-25T14:14:06.443Z,593.00
2022-11-25T14:19:50.582Z,601.00
2022-11-25T14:24:06.836Z,600.00
2022-11-25T14:29:08.224Z,593.00
2022-11-25T14:34:03.263Z,597.00
2022-11-25T14:39:01.582Z,598.00
2022-11-25T14:44:00.891Z,604.00
2022-11-25T14:49:00.209Z,602.00
2022-11-25T14:54:01.505Z,599.00
2022-11-25T14:58:59.798Z,599.00
2022-11-25T15:03:58.117Z,601.00
2022-11-25T15:08:57.424Z,601.00
2022-11-25T15:13:56.732Z,610.00
2022-11-25T15:18:56.081Z,599.00
2022-11-25T15:23:56.407Z,601.00
2022-11-25T15:28:55.702Z,606.00
2022-11-25T15:33:54.574Z,608.00
2022-11-25T15:38:53.256Z,605.00
2022-11-25T15:43:52.563Z,603.00
2022-11-25T15:48:52.888Z,602.00
2022-11-25T15:53:51.191Z,601.00
2022-11-25T15:58:50.475Z,601.00
2022-11-25T16:03:50.768Z,610.00
2022-11-25T16:08:49.035Z,603.00
2022-11-25T16:13:49.341Z,606.00
2022-11-25T16:18:48.681Z,603.00
2022-11-25T16:23:49.014Z,610.00
2022-11-25T16:28:46.117Z,613.00
2022-11-25T16:33:45.698Z,603.00
2022-11-25T16:38:45.758Z,603.00
2022-11-25T16:43:43.877Z,608.00
2022-11-25T16:48:43.919Z,606.00
2022-11-25T16:53:43.573Z,613.00
2022-11-25T16:58:41.769Z,611.00
2022-11-25T17:03:42.982Z,611.00
2022-11-25T17:08:40.054Z,611.00
2022-11-25T17:13:40.617Z,615.00
2022-11-25T17:18:38.623Z,610.00
2022-11-25T17:23:37.888Z,608.00
2022-11-25T17:28:38.315Z,606.00
2022-11-25T17:33:36.336Z,618.00
2022-11-25T17:38:35.453Z,621.00
2022-11-25T17:43:35.118Z,611.00
2022-11-25T17:48:34.369Z,671.00
2022-11-25T17:53:33.618Z,652.00
2022-11-25T17:58:32.678Z,647.00
2022-11-25T18:03:33.265Z,650.00
2022-11-25T18:08:31.229Z,645.00
2022-11-25T18:13:30.390Z,652.00
2022-11-25T18:18:31.541Z,648.00
2022-11-25T18:23:28.910Z,657.00
2022-11-25T18:28:28.103Z,646.00
2022-11-25T18:33:28.123Z,648.00
2022-11-25T18:38:26.448Z,650.00
2022-11-25T18:43:29.402Z,652.00
2022-11-25T18:48:25.899Z,651.00
2022-11-25T18:53:24.086Z,655.00
2022-11-25T18:58:24.383Z,637.00
2022-11-25T19:03:22.642Z,646.00
2022-11-25T19:08:22.861Z,646.00
2022-11-25T19:13:21.862Z,639.00
2022-11-25T19:18:20.310Z,634.00
2022-11-25T19:23:19.696Z,632.00
2022-11-25T19:28:18.991Z,639.00
2022-11-25T19:33:19.237Z,637.00
2022-11-25T19:38:17.514Z,647.00
2022-11-25T19:43:20.489Z,664.00
2022-11-25T19:48:18.900Z,641.00
2022-11-25T19:53:16.433Z,650.00
2022-11-25T19:58:14.617Z,652.00
2022-11-25T20:03:13.981Z,646.00
2022-11-25T20:08:13.024Z,643.00
2022-11-25T20:13:23.277Z,641.00
2022-11-25T20:18:17.791Z,638.00
2022-11-25T20:23:10.617Z,661.00
2022-11-25T20:28:09.856Z,654.00
2022-11-25T20:33:08.825Z,636.00
2022-11-25T20:38:08.537Z,642.00
2022-11-25T20:43:07.378Z,642.00
2022-11-25T20:48:06.930Z,649.00
2022-11-25T20:53:05.703Z,658.00
2022-11-25T20:58:06.282Z,703.00
2022-11-25T21:03:04.505Z,735.00
2022-11-25T21:08:04.487Z,755.00
2022-11-25T21:13:04.653Z,784.00
2022-11-25T21:18:02.883Z,781.00
2022-11-25T21:23:02.061Z,848.00
2022-11-25T21:28:01.246Z,877.00
2022-11-25T21:32:59.426Z,871.00
2022-11-25T21:37:58.832Z,889.00
2022-11-25T21:42:58.851Z,879.00
2022-11-25T21:47:58.028Z,897.00
2022-11-25T21:52:56.203Z,908.00
2022-11-25T21:57:56.402Z,911.00
2022-11-25T22:02:55.689Z,920.00
2022-11-25T22:07:55.837Z,937.00
2022-11-25T22:13:02.178Z,954.00
2022-11-25T22:17:52.331Z,937.00
2022-11-25T22:22:51.523Z,952.00
2022-11-25T22:27:50.706Z,959.00
2022-11-25T22:32:51.862Z,961.00
2022-11-25T22:37:54.777Z,974.00
2022-11-25T22:42:48.262Z,986.00
2022-11-25T22:47:48.440Z,978.00
2022-11-25T22:52:47.580Z,979.00
2022-11-25T22:57:44.746Z,969.00
2022-11-25T23:02:45.947Z,952.00
2022-11-25T23:07:44.182Z,968.00
2022-11-25T23:12:44.423Z,968.00
2022-11-25T23:17:42.582Z,991.00
2022-11-25T23:22:41.746Z,984.00
2022-11-25T23:27:41.898Z,965.00
2022-11-25T23:32:40.264Z,980.00
2022-11-25T23:37:41.461Z,997.00
2022-11-25T23:42:38.616Z,969.00
2022-11-25T23:47:37.824Z,971.00
2022-11-25T23:52:38.004Z,979.00
2022-11-25T23:57:36.196Z,979.00
